Time;durP1;ratioP1;P1;durP2;ratioP2;P2;SDS_P1;SDS_P2;PMS_P1;PMS_P2;Temp;Humidity;BMP_temperature;BMP_pressure;BME280_temperature;BME280_humidity;BME280_pressure;Samples;Min_cycle;Max_cycle;Signal;HPM_P1;HPM_P2
2023/12/29 00:01:43;;;;;;;9.63;2.45;;;;;;;6.13;92.63;99028.56;5089101;28;20060;-53
2023/12/29 00:04:11;;;;;;;16.60;4.25;;;;;;;6.12;92.65;99033.25;5079141;28;20082;-54
2023/12/29 00:06:39;;;;;;;15.23;2.95;;;;;;;6.12;92.78;99032.44;5083353;28;20049;-51
2023/12/29 00:09:23;;;;;;;16.60;4.03;;;;;;;6.10;92.67;99040.25;5083227;28;20044;-54
2023/12/29 00:11:51;;;;;;;15.30;3.88;;;;;;;6.08;92.71;99039.81;5077380;28;20040;-52
2023/12/29 00:14:19;;;;;;;13.60;4.07;;;;;;;6.06;92.78;99042.16;5088640;28;20502;-49
2023/12/29 00:16:47;;;;;;;13.73;2.60;;;;;;;6.05;92.57;99046.03;5089675;28;20103;-50
2023/12/29 00:19:14;;;;;;;14.43;3.03;;;;;;;6.03;92.83;99029.91;5089624;28;20052;-53
2023/12/29 00:21:42;;;;;;;13.48;2.53;;;;;;;6.02;92.76;99044.00;5089419;28;20052;-51
2023/12/29 00:24:09;;;;;;;11.15;2.85;;;;;;;6.02;92.74;99053.03;5089127;28;20044;-51
2023/12/29 00:26:37;;;;;;;14.05;2.40;;;;;;;6.00;92.67;99036.13;5089547;28;20413;-47
2023/12/29 00:29:06;;;;;;;10.55;2.85;;;;;;;5.99;92.75;99048.25;5089113;28;20414;-48
2023/12/29 00:31:34;;;;;;;15.70;2.80;;;;;;;5.99;92.89;99042.75;5090102;28;20701;-53
2023/12/29 00:34:02;;;;;;;8.93;2.55;;;;;;;6.00;92.67;99049.06;5089201;28;20125;-49
2023/12/29 00:36:30;;;;;;;15.23;3.55;;;;;;;6.00;92.43;99029.81;5090475;28;20128;-51
2023/12/29 00:38:58;;;;;;;9.88;2.45;;;;;;;6.01;92.34;99045.16;5089034;28;20787;-50
2023/12/29 00:41:27;;;;;;;34.92;3.58;;;;;;;6.01;92.36;99034.19;5088469;28;20711;-47
2023/12/29 00:43:54;;;;;;;16.65;3.10;;;;;;;6.03;92.33;99042.84;5086573;28;20055;-53
2023/12/29 00:46:21;;;;;;;29.58;3.03;;;;;;;6.02;92.43;99019.28;5077874;28;20049;-53
2023/12/29 00:48:49;;;;;;;15.60;3.50;;;;;;;6.02;92.59;99058.53;5074307;28;20126;-51
2023/12/29 00:51:17;;;;;;;18.98;3.03;;;;;;;6.04;92.16;99034.25;5089286;28;20606;-53
2023/12/29 00:53:44;;;;;;;27.27;3.22;;;;;;;6.07;92.17;99038.22;5089780;28;20058;-52
2023/12/29 00:56:12;;;;;;;19.45;2.55;;;;;;;6.08;92.07;99040.63;5089386;28;20040;-52
2023/12/29 00:58:39;;;;;;;13.38;2.85;;;;;;;6.05;92.09;99052.34;5075464;28;20048;-55
2023/12/29 01:01:08;;;;;;;14.15;2.83;;;;;;;6.05;92.24;99057.03;5089655;28;20048;-53
2023/12/29 01:03:35;;;;;;;13.15;3.25;;;;;;;6.03;92.04;99070.31;5088658;28;20402;-51
2023/12/29 01:06:03;;;;;;;12.68;2.60;;;;;;;6.01;91.97;99050.66;5075761;28;20509;-51
2023/12/29 01:08:33;;;;;;;9.23;2.20;;;;;;;6.00;91.65;99055.34;5088938;28;20048;-53
2023/12/29 01:11:01;;;;;;;17.85;4.07;;;;;;;5.99;91.82;99052.94;5088780;28;20376;-52
2023/12/29 01:13:28;;;;;;;10.23;2.10;;;;;;;5.97;91.70;99055.25;5081954;28;20048;-53
2023/12/29 01:15:55;;;;;;;13.05;3.03;;;;;;;5.96;91.80;99065.44;5082171;28;20055;-54
2023/12/29 01:18:23;;;;;;;12.80;2.50;;;;;;;5.97;91.76;99060.75;5076585;28;20671;-52
2023/12/29 01:20:50;;;;;;;14.77;3.03;;;;;;;5.96;91.60;99067.38;5087773;28;20048;-51
2023/12/29 01:23:18;;;;;;;15.50;2.95;;;;;;;5.94;91.66;99062.25;5058772;28;20048;-50
2023/12/29 01:25:45;;;;;;;11.77;3.03;;;;;;;5.93;91.70;99070.88;5088434;28;20056;-51
2023/12/29 01:28:12;;;;;;;11.25;2.08;;;;;;;5.91;91.44;99073.16;5087672;28;20052;-48
2023/12/29 01:30:40;;;;;;;15.25;2.55;;;;;;;5.89;91.38;99073.50;5087910;28;20067;-56
2023/12/29 01:33:07;;;;;;;11.25;2.00;;;;;;;5.89;91.52;99078.19;5087412;28;20040;-51
2023/12/29 01:35:35;;;;;;;15.10;2.85;;;;;;;5.89;91.49;99091.94;5069422;28;20036;-52
2023/12/29 01:38:03;;;;;;;15.32;3.58;;;;;;;5.86;91.34;99087.94;5087271;28;20051;-52
2023/12/29 01:40:30;;;;;;;13.88;2.97;;;;;;;5.85;91.36;99086.34;5084614;28;20044;-50
2023/12/29 01:42:57;;;;;;;10.05;2.92;;;;;;;5.85;91.17;99093.81;5077727;28;20094;-51
2023/12/29 01:45:26;;;;;;;15.85;5.20;;;;;;;5.83;90.94;99085.88;5086989;28;20497;-49
2023/12/29 01:47:54;;;;;;;19.35;3.22;;;;;;;5.84;91.06;99092.16;5087781;28;20498;-51
2023/12/29 01:50:23;;;;;;;14.02;2.03;;;;;;;5.85;90.72;99093.81;5073067;28;20071;-54
2023/12/29 01:52:52;;;;;;;20.05;2.28;;;;;;;5.84;91.02;99089.44;5087442;28;20048;-49
2023/12/29 01:55:21;;;;;;;12.95;2.22;;;;;;;5.82;90.86;99075.25;5087401;28;20048;-49
2023/12/29 01:57:50;;;;;;;15.35;2.97;;;;;;;5.81;90.99;99090.13;5087073;28;20516;-50
2023/12/29 02:00:18;;;;;;;14.15;3.08;;;;;;;5.81;90.83;99084.63;5068926;28;20710;-51
2023/12/29 02:02:46;;;;;;;14.85;3.53;;;;;;;5.81;90.74;99090.94;5086612;28;20055;-53
2023/12/29 02:05:15;;;;;;;15.77;2.70;;;;;;;5.80;91.00;99086.56;5087332;28;20054;-51
2023/12/29 02:07:43;;;;;;;11.45;3.45;;;;;;;5.77;90.86;99098.25;5087200;28;20051;-51
2023/12/29 02:10:13;;;;;;;15.27;2.85;;;;;;;5.75;90.87;99084.09;5080764;28;20044;-52
2023/12/29 02:12:41;;;;;;;15.93;3.85;;;;;;;5.74;90.79;99089.97;5083398;28;20484;-53
2023/12/29 02:15:09;;;;;;;12.77;2.88;;;;;;;5.71;90.73;99076.94;5079741;28;20055;-51
2023/12/29 02:17:51;;;;;;;13.05;2.53;;;;;;;5.70;90.98;99094.53;5086944;28;20047;-50
2023/12/29 02:20:19;;;;;;;19.58;2.83;;;;;;;5.68;90.77;99105.88;5067194;28;20054;-52
2023/12/29 02:22:46;;;;;;;12.45;2.95;;;;;;;5.67;90.87;99089.75;5068324;28;20046;-50
2023/12/29 02:25:14;;;;;;;9.77;3.45;;;;;;;5.66;90.61;99096.41;5086647;28;20051;-52
2023/12/29 02:28:02;;;;;;;15.40;2.80;;;;;;;5.66;90.73;99099.16;5084198;28;20048;-51
2023/12/29 02:30:49;;;;;;;11.70;3.10;;;;;;;5.64;90.62;99102.25;5083811;28;20735;-54
2023/12/29 02:33:22;;;;;;;13.10;2.85;;;;;;;5.64;90.66;99101.47;5078055;28;20051;-53
2023/12/29 02:35:52;;;;;;;11.77;2.88;;;;;;;5.64;90.57;99120.69;5086053;28;20524;-49
2023/12/29 02:38:20;;;;;;;19.23;3.95;;;;;;;5.65;90.36;99114.03;5069366;28;20044;-49
2023/12/29 02:40:48;;;;;;;14.10;2.90;;;;;;;5.66;90.10;99132.09;5073214;28;20553;-51
2023/12/29 02:43:15;;;;;;;19.00;3.28;;;;;;;5.64;90.17;99107.72;5086980;28;20392;-51
2023/12/29 02:45:43;;;;;;;14.35;3.10;;;;;;;5.64;90.10;99135.19;5089497;28;20052;-50
2023/12/29 02:48:10;;;;;;;13.85;2.35;;;;;;;5.64;90.27;99131.66;5090889;28;20529;-49
2023/12/29 02:50:38;;;;;;;18.52;3.40;;;;;;;5.63;89.95;99121.81;5090050;28;20576;-53
2023/12/29 02:53:06;;;;;;;12.50;3.47;;;;;;;5.63;90.18;99130.06;5090129;28;20048;-47
2023/12/29 02:55:33;;;;;;;18.55;2.85;;;;;;;5.62;89.88;99131.19;5090651;28;20054;-49
2023/12/29 02:58:00;;;;;;;12.25;2.53;;;;;;;5.61;89.90;99140.59;5090921;28;20391;-54
2023/12/29 03:02:58;;;;;;;13.90;2.80;;;;;;;5.60;90.21;99128.00;5079418;22;20051;-50
2023/12/29 03:05:25;;;;;;;19.98;3.05;;;;;;;5.59;89.55;99118.19;5064749;28;20528;-49
2023/12/29 03:07:53;;;;;;;15.80;2.83;;;;;;;5.58;89.63;99138.56;5065927;28;20127;-48
2023/12/29 03:10:20;;;;;;;16.23;2.45;;;;;;;5.58;89.54;99124.81;5090334;28;20048;-49
2023/12/29 03:12:48;;;;;;;15.68;3.50;;;;;;;5.58;89.54;99122.88;5089625;28;20497;-49
2023/12/29 03:15:15;;;;;;;14.25;2.67;;;;;;;5.58;89.19;99124.81;5090103;28;20074;-51
2023/12/29 03:17:42;;;;;;;17.73;3.97;;;;;;;5.58;89.20;99119.34;5087036;28;20044;-49
2023/12/29 03:20:10;;;;;;;11.00;2.97;;;;;;;5.57;89.07;99131.44;5079877;28;20051;-48
2023/12/29 03:22:38;;;;;;;11.68;3.03;;;;;;;5.56;89.33;99138.88;5089400;28;20036;-48
2023/12/29 03:25:06;;;;;;;18.92;2.60;;;;;;;5.54;89.16;99136.50;5090135;28;20051;-47
2023/12/29 03:27:33;;;;;;;28.85;5.35;;;;;;;5.53;88.91;99132.16;5071984;28;20036;-52
2023/12/29 03:30:00;;;;;;;20.02;3.63;;;;;;;5.51;88.60;99131.72;5089704;28;20055;-51
2023/12/29 03:32:28;;;;;;;11.63;3.30;;;;;;;5.50;88.90;99130.13;5085263;28;20052;-53
2023/12/29 03:34:55;;;;;;;13.18;3.63;;;;;;;5.51;88.44;99147.38;5070228;28;20040;-51
2023/12/29 03:37:23;;;;;;;15.68;2.42;;;;;;;5.50;88.49;99143.84;5088859;28;20055;-51
2023/12/29 03:39:50;;;;;;;12.75;2.40;;;;;;;5.48;88.47;99137.13;5071160;28;20055;-49
2023/12/29 03:42:19;;;;;;;19.90;3.90;;;;;;;5.47;88.18;99143.75;5085390;28;20049;-46
2023/12/29 03:44:46;;;;;;;16.50;4.82;;;;;;;5.46;88.35;99156.66;5082232;28;20526;-49
2023/12/29 03:47:13;;;;;;;14.95;3.15;;;;;;;5.46;88.27;99173.13;5089635;28;20052;-46
2023/12/29 03:49:41;;;;;;;7.93;2.22;;;;;;;5.45;88.01;99163.28;5070296;28;20040;-49
2023/12/29 03:52:08;;;;;;;17.25;2.95;;;;;;;5.44;87.74;99164.47;5089140;28;20048;-46
2023/12/29 03:54:36;;;;;;;14.20;2.70;;;;;;;5.44;87.87;99147.19;5087396;28;20492;-51
2023/12/29 03:57:03;;;;;;;12.02;2.60;;;;;;;5.40;87.61;99158.06;5082542;28;20053;-46
2023/12/29 03:59:30;;;;;;;18.60;4.28;;;;;;;5.39;87.54;99161.97;5081875;28;20059;-47
2023/12/29 04:01:58;;;;;;;19.65;4.60;;;;;;;5.38;87.35;99163.09;5087129;28;20049;-50
2023/12/29 04:04:25;;;;;;;16.52;3.05;;;;;;;5.36;87.17;99167.34;5088745;28;20040;-52
2023/12/29 04:06:53;;;;;;;17.27;3.90;;;;;;;5.33;87.05;99174.34;5088414;28;20055;-47
2023/12/29 04:09:21;;;;;;;14.82;2.50;;;;;;;5.33;87.15;99166.09;5084370;28;20383;-46
2023/12/29 04:11:48;;;;;;;20.40;3.35;;;;;;;5.31;87.17;99168.41;5087826;28;20052;-51
2023/12/29 04:14:16;;;;;;;15.25;3.42;;;;;;;5.30;87.29;99175.03;5083824;28;20062;-51
2023/12/29 04:16:43;;;;;;;20.42;2.45;;;;;;;5.25;87.58;99169.78;5088914;28;20048;-48
2023/12/29 04:19:11;;;;;;;25.83;3.90;;;;;;;5.24;87.45;99176.41;5088190;28;20048;-53
2023/12/29 04:21:42;;;;;;;11.65;4.38;;;;;;;5.23;87.51;99196.78;5088260;28;20051;-51
2023/12/29 04:24:09;;;;;;;14.35;2.63;;;;;;;5.21;87.60;99171.63;5087303;28;20055;-51
2023/12/29 04:26:37;;;;;;;17.88;3.38;;;;;;;5.23;87.80;99196.78;5075427;28;20401;-49
2023/12/29 04:29:04;;;;;;;17.13;2.58;;;;;;;5.24;87.68;99198.34;5089053;28;20040;-48
2023/12/29 04:31:31;;;;;;;20.33;3.13;;;;;;;5.24;87.56;99195.63;5088200;28;20047;-51
2023/12/29 04:33:59;;;;;;;13.52;3.28;;;;;;;5.23;87.56;99198.72;5067224;28;20051;-48
2023/12/29 04:36:26;;;;;;;13.93;3.00;;;;;;;5.23;87.66;99212.44;5069805;28;20040;-51
2023/12/29 04:38:53;;;;;;;12.57;3.78;;;;;;;5.23;87.83;99215.97;5086160;28;20075;-49
2023/12/29 04:41:20;;;;;;;13.45;3.33;;;;;;;5.22;88.13;99211.63;5078746;28;20045;-49
2023/12/29 04:43:49;;;;;;;21.08;3.17;;;;;;;5.23;88.10;99218.72;5085189;28;20671;-50
2023/12/29 04:46:17;;;;;;;12.07;2.65;;;;;;;5.24;88.00;99228.53;5088137;28;20413;-46
2023/12/29 04:48:44;;;;;;;11.18;2.10;;;;;;;5.27;88.10;99222.34;5087181;28;20044;-47
2023/12/29 04:51:12;;;;;;;21.05;3.22;;;;;;;5.30;88.10;99227.16;5088352;28;20610;-47
2023/12/29 04:53:39;;;;;;;8.23;1.85;;;;;;;5.31;88.17;99204.06;5069358;28;20051;-50
2023/12/29 04:56:06;;;;;;;12.00;2.88;;;;;;;5.33;87.93;99199.03;5088182;28;20040;-48
2023/12/29 04:58:34;;;;;;;14.65;2.38;;;;;;;5.34;87.95;99208.88;5087419;28;20040;-53
2023/12/29 05:01:01;;;;;;;12.13;2.10;;;;;;;5.35;88.21;99206.91;5087634;28;20070;-53
2023/12/29 05:03:28;;;;;;;11.57;2.13;;;;;;;5.35;88.31;99213.19;5086619;28;20493;-52
2023/12/29 05:05:56;;;;;;;11.00;2.83;;;;;;;5.35;88.39;99210.44;5081283;28;20483;-50
2023/12/29 05:08:23;;;;;;;12.75;3.40;;;;;;;5.33;88.12;99204.50;5087349;28;20040;-49
2023/12/29 05:10:50;;;;;;;19.33;3.25;;;;;;;5.31;88.57;99208.75;5086676;28;20051;-52
2023/12/29 05:13:18;;;;;;;19.02;3.35;;;;;;;5.29;88.78;99220.09;5081662;28;20045;-51
2023/12/29 05:15:46;;;;;;;9.98;2.58;;;;;;;5.27;88.84;99216.09;5087522;28;20047;-52
2023/12/29 05:18:13;;;;;;;9.45;2.63;;;;;;;5.23;88.98;99224.22;5079355;28;20044;-51
2023/12/29 05:20:41;;;;;;;25.10;4.35;;;;;;;5.21;89.13;99226.50;5087466;28;20052;-54
2023/12/29 05:23:10;;;;;;;13.23;3.17;;;;;;;5.18;89.05;99229.13;5080235;28;20392;-48
2023/12/29 05:25:37;;;;;;;13.27;2.22;;;;;;;5.16;89.29;99228.69;5086098;28;20063;-53
2023/12/29 05:28:04;;;;;;;17.45;2.55;;;;;;;5.13;89.05;99238.41;5086177;28;20370;-49
2023/12/29 05:30:32;;;;;;;17.92;2.17;;;;;;;5.11;89.27;99220.72;5086750;28;20040;-51
2023/12/29 05:32:59;;;;;;;12.57;3.75;;;;;;;5.08;89.33;99232.38;5086932;28;20536;-47
2023/12/29 05:35:27;;;;;;;13.90;3.42;;;;;;;5.04;89.20;99229.50;5087005;28;20046;-50
2023/12/29 05:37:54;;;;;;;12.65;3.25;;;;;;;5.03;89.24;99225.16;5087183;28;20055;-48
2023/12/29 05:40:21;;;;;;;13.32;2.85;;;;;;;5.03;89.29;99227.88;5086744;28;20044;-52
2023/12/29 05:42:49;;;;;;;14.88;2.33;;;;;;;5.03;89.33;99224.38;5087175;28;20512;-51
2023/12/29 05:45:17;;;;;;;14.32;2.70;;;;;;;5.01;89.60;99241.16;5087267;28;20059;-45
2023/12/29 05:47:44;;;;;;;18.48;2.88;;;;;;;5.02;89.63;99240.03;5087294;28;20036;-48
2023/12/29 05:50:12;;;;;;;10.73;3.00;;;;;;;5.02;89.49;99240.03;5086668;28;20414;-51
2023/12/29 05:52:39;;;;;;;27.70;4.00;;;;;;;5.02;89.62;99250.19;5086954;28;20067;-48
2023/12/29 05:55:07;;;;;;;15.48;4.43;;;;;;;5.02;89.31;99251.00;5087091;28;20044;-51
2023/12/29 05:57:34;;;;;;;19.48;3.50;;;;;;;5.02;89.72;99256.47;5087062;28;20079;-51
2023/12/29 06:00:02;;;;;;;20.77;4.00;;;;;;;5.01;89.43;99254.88;5086360;28;20051;-47
2023/12/29 06:02:30;;;;;;;18.35;2.80;;;;;;;5.00;89.20;99258.78;5086448;28;20552;-48
2023/12/29 06:04:57;;;;;;;9.27;2.85;;;;;;;4.98;89.63;99250.06;5081063;28;20040;-53
2023/12/29 06:07:24;;;;;;;15.65;2.22;;;;;;;4.99;89.69;99254.41;5086519;28;20044;-48
2023/12/29 06:09:52;;;;;;;16.17;3.42;;;;;;;4.98;89.74;99265.75;5086595;28;20044;-50
2023/12/29 06:12:19;;;;;;;11.73;2.08;;;;;;;4.96;89.78;99266.06;5087052;28;20433;-47
2023/12/29 06:14:46;;;;;;;10.95;2.33;;;;;;;4.95;89.60;99255.47;5068231;28;20044;-49
2023/12/29 06:17:15;;;;;;;8.40;2.55;;;;;;;4.94;89.77;99254.66;5086902;28;20102;-47
2023/12/29 06:19:43;;;;;;;13.15;2.47;;;;;;;4.93;89.75;99264.00;5089609;28;20044;-47
2023/12/29 06:22:11;;;;;;;13.88;2.35;;;;;;;4.92;90.04;99267.91;5091026;28;20059;-49
2023/12/29 06:24:38;;;;;;;18.60;2.67;;;;;;;4.92;90.18;99282.41;5086083;28;20054;-50
2023/12/29 06:27:08;;;;;;;12.88;2.08;;;;;;;4.94;90.16;99279.34;5090575;28;20052;-52
2023/12/29 06:29:36;;;;;;;13.48;2.90;;;;;;;4.93;89.82;99280.47;5090122;28;20043;-48
2023/12/29 06:32:04;;;;;;;20.83;4.80;;;;;;;4.93;90.25;99285.97;5089832;28;20051;-48
2023/12/29 06:34:31;;;;;;;12.20;2.90;;;;;;;4.92;89.90;99295.34;5091330;28;20056;-49
2023/12/29 06:36:58;;;;;;;7.80;3.33;;;;;;;4.90;90.24;99292.94;5090406;28;20383;-46
2023/12/29 06:39:26;;;;;;;22.10;5.57;;;;;;;4.91;90.34;99296.47;5090158;28;20048;-51
2023/12/29 06:41:53;;;;;;;21.73;3.13;;;;;;;4.90;90.21;99300.34;5089712;28;20375;-50
2023/12/29 06:44:21;;;;;;;25.92;2.67;;;;;;;4.89;90.38;99301.50;5090729;28;20040;-50
2023/12/29 06:46:48;;;;;;;16.85;3.45;;;;;;;4.88;89.98;99288.94;5088824;28;20876;-48
2023/12/29 06:49:15;;;;;;;20.10;3.35;;;;;;;4.88;90.33;99294.41;5091220;28;20052;-46
2023/12/29 06:51:44;;;;;;;16.35;2.20;;;;;;;4.87;90.36;99304.56;5089525;28;20051;-51
2023/12/29 06:54:11;;;;;;;16.65;2.72;;;;;;;4.86;90.41;99303.00;5089880;28;20055;-51
2023/12/29 06:56:39;;;;;;;10.52;2.28;;;;;;;4.85;90.39;99306.06;5079527;28;20046;-48
2023/12/29 06:59:07;;;;;;;18.67;3.72;;;;;;;4.83;90.61;99302.88;5089980;28;20063;-51
2023/12/29 07:01:39;;;;;;;9.18;2.40;;;;;;;4.82;90.78;99295.78;5085143;28;20059;-47
2023/12/29 07:04:10;;;;;;;15.32;2.83;;;;;;;4.82;90.34;99302.06;5071468;28;20051;-48
2023/12/29 07:06:37;;;;;;;13.75;2.65;;;;;;;4.82;90.67;99301.25;5083361;28;20040;-48
2023/12/29 07:09:05;;;;;;;11.93;2.22;;;;;;;4.82;90.59;99302.06;5068526;28;20044;-49
2023/12/29 07:11:32;;;;;;;8.15;1.58;;;;;;;4.83;90.76;99319.31;5088057;28;20048;-52
2023/12/29 07:13:59;;;;;;;11.88;2.22;;;;;;;4.84;90.89;99316.22;5084392;28;20044;-45
2023/12/29 07:16:27;;;;;;;6.10;1.67;;;;;;;4.85;90.64;99322.50;5083721;28;20758;-50
2023/12/29 07:18:54;;;;;;;9.23;2.08;;;;;;;4.85;90.79;99328.00;5082220;28;20576;-48
2023/12/29 07:21:22;;;;;;;12.05;2.05;;;;;;;4.84;90.86;99327.19;5089608;28;20051;-50
2023/12/29 07:23:49;;;;;;;11.13;1.98;;;;;;;4.83;90.79;99338.50;5089845;28;20071;-52
2023/12/29 07:26:16;;;;;;;8.80;1.38;;;;;;;4.83;90.95;99322.06;5083131;28;20040;-49
2023/12/29 07:28:44;;;;;;;10.77;2.10;;;;;;;4.82;90.68;99329.47;5088420;28;20055;-48
2023/12/29 07:31:12;;;;;;;15.90;1.73;;;;;;;4.83;90.97;99335.78;5089710;28;20413;-48
2023/12/29 07:33:39;;;;;;;8.63;2.00;;;;;;;4.82;90.83;99329.47;5088506;28;20044;-50
2023/12/29 07:36:07;;;;;;;9.32;1.77;;;;;;;4.84;90.85;99332.69;5089917;28;20400;-49
2023/12/29 07:38:34;;;;;;;9.45;2.28;;;;;;;4.88;90.99;99338.28;5089027;28;20067;-47
2023/12/29 07:41:01;;;;;;;9.50;2.13;;;;;;;4.89;91.04;99339.91;5089308;28;20052;-46
2023/12/29 07:43:29;;;;;;;12.95;2.08;;;;;;;4.89;91.19;99356.34;5071334;28;20044;-52
2023/12/29 07:45:56;;;;;;;11.40;1.98;;;;;;;4.88;90.98;99349.25;5089244;28;20044;-47
2023/12/29 07:48:23;;;;;;;8.45;2.05;;;;;;;4.87;91.24;99353.16;5055835;28;20036;-45
2023/12/29 07:50:51;;;;;;;16.08;1.80;;;;;;;4.86;91.21;99351.53;5088148;28;20052;-49
2023/12/29 07:53:18;;;;;;;12.73;1.90;;;;;;;4.85;91.24;99347.19;5088062;28;20040;-45
2023/12/29 07:55:49;;;;;;;8.80;1.80;;;;;;;4.82;91.50;99354.16;5078578;28;20048;-46
2023/12/29 07:58:17;;;;;;;13.35;2.75;;;;;;;4.80;91.48;99348.22;5086100;28;21768;-49
2023/12/29 08:00:46;;;;;;;16.38;2.00;;;;;;;4.77;91.21;99365.34;5088891;28;20509;-48
2023/12/29 08:03:13;;;;;;;15.60;3.17;;;;;;;4.76;91.36;99360.22;5088372;28;20062;-50
2023/12/29 08:05:40;;;;;;;8.95;1.85;;;;;;;4.75;91.46;99366.84;5089039;28;20052;-55
2023/12/29 08:08:08;;;;;;;19.45;6.43;;;;;;;4.73;91.44;99363.63;5088898;28;20055;-48
2023/12/29 08:10:35;;;;;;;14.80;2.25;;;;;;;4.72;91.90;99356.53;5089035;28;20052;-52
2023/12/29 08:13:03;;;;;;;14.35;2.60;;;;;;;4.72;91.57;99367.50;5087978;28;20421;-49
2023/12/29 08:15:31;;;;;;;11.57;2.78;;;;;;;4.72;91.63;99368.31;5077767;28;20051;-52
2023/12/29 08:17:58;;;;;;;16.77;2.30;;;;;;;4.72;91.77;99367.50;5086625;28;20405;-46
2023/12/29 08:20:26;;;;;;;21.67;4.20;;;;;;;4.73;91.55;99378.16;5089092;28;20048;-49
2023/12/29 08:22:53;;;;;;;18.02;2.45;;;;;;;4.73;91.74;99377.34;5088054;28;20044;-49
2023/12/29 08:25:20;;;;;;;13.77;2.30;;;;;;;4.72;91.74;99383.97;5086515;28;20048;-51
2023/12/29 08:27:48;;;;;;;12.52;3.17;;;;;;;4.72;92.12;99383.97;5085937;28;20063;-48
2023/12/29 08:30:15;;;;;;;18.40;3.53;;;;;;;4.74;91.94;99387.16;5088947;28;20071;-45
2023/12/29 08:32:43;;;;;;;9.95;3.10;;;;;;;4.75;91.91;99380.53;5087764;28;20705;-49
2023/12/29 08:35:10;;;;;;;8.45;3.42;;;;;;;4.75;92.06;99383.28;5082146;28;20063;-45
2023/12/29 08:37:38;;;;;;;15.10;2.72;;;;;;;4.73;92.05;99374.59;5079087;28;20047;-46
2023/12/29 08:40:06;;;;;;;15.32;2.50;;;;;;;4.74;92.08;99376.19;5069712;28;20048;-47
2023/12/29 08:42:33;;;;;;;19.05;3.28;;;;;;;4.75;91.95;99386.03;5075568;28;20072;-50
2023/12/29 08:45:01;;;;;;;17.83;2.95;;;;;;;4.73;92.12;99383.63;5088050;28;20083;-51
2023/12/29 08:47:28;;;;;;;5.97;1.40;;;;;;;4.76;91.94;99390.38;5087464;28;20056;-49
2023/12/29 08:49:56;;;;;;;9.57;1.63;;;;;;;4.76;92.05;99382.97;5087570;28;20052;-48
2023/12/29 08:52:23;;;;;;;19.25;3.97;;;;;;;4.79;92.41;99392.44;5087453;28;20044;-48
2023/12/29 08:54:50;;;;;;;8.48;2.15;;;;;;;4.78;92.33;99385.34;5086045;28;20055;-45
2023/12/29 08:57:18;;;;;;;11.88;2.00;;;;;;;4.77;92.22;99372.78;5087211;28;20032;-49
2023/12/29 08:59:45;;;;;;;9.73;2.20;;;;;;;4.80;92.61;99388.53;5086404;28;20059;-45
2023/12/29 09:02:12;;;;;;;9.05;2.22;;;;;;;4.80;92.33;99392.09;5086978;28;20064;-46
2023/12/29 09:04:40;;;;;;;10.27;1.73;;;;;;;4.81;92.59;99404.66;5083875;28;20059;-46
2023/12/29 09:07:07;;;;;;;8.77;1.83;;;;;;;4.83;92.75;99401.56;5087790;28;20043;-46
2023/12/29 09:09:35;;;;;;;11.88;2.97;;;;;;;4.83;92.56;99399.66;5083635;28;20052;-45
2023/12/29 09:12:02;;;;;;;8.50;2.08;;;;;;;4.83;92.89;99407.88;5086032;28;20044;-47
2023/12/29 09:14:32;;;;;;;15.32;2.55;;;;;;;4.84;92.51;99397.72;5086664;28;20605;-48
2023/12/29 09:17:00;;;;;;;11.05;2.40;;;;;;;4.84;92.59;99412.19;5086734;28;20055;-49
2023/12/29 09:19:27;;;;;;;13.98;2.42;;;;;;;4.83;92.84;99407.88;5086782;28;20058;-47
2023/12/29 09:22:06;;;;;;;9.75;2.25;;;;;;;4.85;92.77;99421.22;5086959;28;20046;-47
2023/12/29 09:24:33;;;;;;;13.70;2.50;;;;;;;4.87;92.90;99421.72;5087032;28;20055;-51
2023/12/29 09:27:00;;;;;;;12.27;1.92;;;;;;;4.88;92.85;99426.03;5086817;28;20047;-50
2023/12/29 09:29:28;;;;;;;15.50;1.85;;;;;;;4.89;92.77;99408.44;5063294;28;20048;-50
2023/12/29 09:31:55;;;;;;;10.15;1.98;;;;;;;4.91;92.94;99419.88;5086662;28;20059;-50
2023/12/29 09:34:22;;;;;;;9.95;1.45;;;;;;;4.93;92.95;99417.59;5087018;28;20051;-50
2023/12/29 09:36:50;;;;;;;5.30;1.33;;;;;;;4.95;93.09;99425.50;5086046;28;20055;-52
2023/12/29 09:39:18;;;;;;;4.32;1.38;;;;;;;4.99;92.63;99432.69;5087138;28;20512;-48
2023/12/29 09:41:51;;;;;;;7.72;2.78;;;;;;;5.07;92.72;99440.03;5086083;28;20040;-48
2023/12/29 09:44:21;;;;;;;7.15;1.33;;;;;;;5.14;92.72;99434.75;5085903;28;20051;-49
2023/12/29 09:46:52;;;;;;;9.18;1.48;;;;;;;5.24;92.75;99445.28;5066196;28;20044;-47
2023/12/29 09:49:20;;;;;;;4.22;1.70;;;;;;;5.31;92.47;99434.56;5082039;28;20040;-50
2023/12/29 09:51:48;;;;;;;9.48;1.40;;;;;;;5.38;92.38;99442.22;5084549;28;20063;-47
2023/12/29 09:54:16;;;;;;;13.20;2.85;;;;;;;5.45;92.51;99442.47;5083705;28;20047;-48
2023/12/29 09:56:44;;;;;;;6.72;1.48;;;;;;;5.48;92.36;99445.31;5086594;28;20055;-46
2023/12/29 09:59:13;;;;;;;15.52;2.65;;;;;;;5.50;92.27;99448.53;5085466;28;20055;-45
2023/12/29 10:01:42;;;;;;;7.53;1.48;;;;;;;5.53;92.05;99466.25;5084935;28;20513;-47
2023/12/29 10:04:09;;;;;;;9.65;1.30;;;;;;;5.56;92.27;99453.78;5085699;28;20052;-46
2023/12/29 10:06:40;;;;;;;14.75;3.00;;;;;;;5.60;92.25;99449.19;5086272;28;20047;-45
2023/12/29 10:09:11;;;;;;;4.88;1.92;;;;;;;5.62;92.09;99466.13;5086509;28;20078;-51
2023/12/29 10:11:42;;;;;;;7.68;1.77;;;;;;;5.65;92.06;99459.94;5085380;28;20521;-47
2023/12/29 10:14:37;;;;;;;12.57;2.22;;;;;;;5.66;92.11;99486.28;5086807;28;20052;-49
2023/12/29 10:17:23;;;;;;;17.10;3.15;;;;;;;5.66;92.08;99489.03;5068779;28;20048;-50
2023/12/29 10:20:10;;;;;;;8.25;1.83;;;;;;;5.65;91.99;99488.22;5083384;28;20437;-48
2023/12/29 10:23:06;;;;;;;8.02;2.17;;;;;;;5.65;92.01;99493.72;5086368;28;20048;-47
2023/12/29 10:25:34;;;;;;;14.10;4.35;;;;;;;5.64;91.96;99494.84;5086018;28;20047;-49
2023/12/29 10:28:02;;;;;;;10.27;2.53;;;;;;;5.63;91.92;99484.22;5067647;28;20290;-48
2023/12/29 10:30:31;;;;;;;7.82;1.90;;;;;;;5.63;91.88;99489.69;5086920;28;20059;-48
2023/12/29 10:33:03;;;;;;;6.03;1.48;;;;;;;5.63;91.90;99484.22;5085711;28;20505;-50
2023/12/29 10:35:35;;;;;;;8.70;2.15;;;;;;;5.61;91.90;99481.81;5086067;28;20063;-51
2023/12/29 10:38:13;;;;;;;9.52;1.67;;;;;;;5.61;91.79;99470.03;5081454;28;20830;-46
2023/12/29 10:40:42;;;;;;;7.22;1.20;;;;;;;5.61;91.88;99497.50;5083087;28;20405;-55
2023/12/29 10:43:10;;;;;;;7.68;1.70;;;;;;;5.60;91.79;99493.13;5086605;28;20417;-48
2023/12/29 10:45:38;;;;;;;3.45;1.10;;;;;;;5.58;91.54;99506.41;5085803;28;20040;-53
2023/12/29 10:48:05;;;;;;;8.23;0.93;;;;;;;5.58;91.58;99509.97;5086267;28;20505;-48
2023/12/29 10:50:44;;;;;;;4.30;1.85;;;;;;;5.59;91.64;99517.03;5085611;28;20041;-48
2023/12/29 10:53:13;;;;;;;5.93;1.55;;;;;;;5.59;91.32;99519.78;5081493;28;20047;-53
2023/12/29 10:55:41;;;;;;;1.50;0.52;;;;;;;5.62;91.37;99518.28;5086404;28;20544;-49
2023/12/29 10:58:09;;;;;;;1.33;0.50;;;;;;;5.66;91.42;99522.78;5086468;28;20045;-51
2023/12/29 11:00:36;;;;;;;3.00;0.57;;;;;;;5.70;91.26;99528.38;5086746;28;20052;-49
2023/12/29 11:03:04;;;;;;;3.15;0.55;;;;;;;5.75;91.08;99548.16;5086314;28;20040;-49
2023/12/29 11:05:33;;;;;;;1.67;0.85;;;;;;;5.78;90.65;99543.94;5071247;28;20039;-48
2023/12/29 11:08:00;;;;;;;3.10;0.50;;;;;;;5.79;90.48;99540.84;5088948;28;20086;-48
2023/12/29 11:10:30;;;;;;;1.25;0.40;;;;;;;5.81;90.23;99535.00;5090393;28;20048;-48
2023/12/29 11:12:58;;;;;;;1.65;0.38;;;;;;;5.81;90.18;99537.75;5089864;28;20533;-45
2023/12/29 11:15:27;;;;;;;1.50;0.40;;;;;;;5.82;90.11;99531.13;5090438;28;20048;-50
2023/12/29 11:17:56;;;;;;;0.32;0.30;;;;;;;5.84;90.12;99545.31;5089444;28;20374;-51
2023/12/29 11:20:26;;;;;;;0.95;0.40;;;;;;;5.84;90.04;99537.06;5090194;28;20067;-52
2023/12/29 11:22:54;;;;;;;0.95;0.38;;;;;;;5.86;90.13;99518.34;5089572;28;20044;-46
2023/12/29 11:25:22;;;;;;;1.10;0.20;;;;;;;5.87;89.89;99506.22;5090329;28;20040;-49
2023/12/29 11:27:51;;;;;;;0.73;0.30;;;;;;;5.87;89.97;99507.03;5089612;28;20058;-51
2023/12/29 11:30:18;;;;;;;3.22;0.25;;;;;;;5.86;89.85;99519.13;5090031;28;20044;-49
2023/12/29 11:33:00;;;;;;;0.43;0.13;;;;;;;5.85;89.70;99492.81;5088837;28;20122;-48
2023/12/29 11:35:50;;;;;;;0.75;0.30;;;;;;;5.82;89.79;99509.97;5089969;28;20059;-48
2023/12/29 11:38:33;;;;;;;0.40;0.17;;;;;;;5.78;89.67;99505.47;5089821;28;20051;-52
2023/12/29 11:41:22;;;;;;;2.10;0.40;;;;;;;5.75;89.64;99506.97;5089686;28;20044;-49
2023/12/29 11:43:59;;;;;;;0.45;0.20;;;;;;;5.70;89.67;99520.94;5070650;28;20058;-45
2023/12/29 11:46:37;;;;;;;0.45;0.30;;;;;;;5.67;89.65;99515.31;5089886;28;20041;-51